createdAt,value
2022-08-26T00:00:20.839Z,23.87
2022-08-26T00:02:49.202Z,23.84
2022-08-26T00:05:18.150Z,23.79
2022-08-26T00:07:46.707Z,23.76
2022-08-26T00:10:15.358Z,23.71
2022-08-26T00:12:45.318Z,23.65
2022-08-26T00:15:19.164Z,23.60
2022-08-26T00:17:49.829Z,23.57
2022-08-26T00:20:22.826Z,23.58
2022-08-26T00:22:51.549Z,23.56
2022-08-26T00:25:20.539Z,23.51
2022-08-26T00:27:50.670Z,23.49
2022-08-26T00:30:26.597Z,23.46
2022-08-26T00:32:56.069Z,23.42
2022-08-26T00:35:25.616Z,23.40
2022-08-26T00:37:57.418Z,23.39
2022-08-26T00:40:31.417Z,23.36
2022-08-26T00:43:02.351Z,23.33
2022-08-26T00:45:45.111Z,23.29
2022-08-26T00:48:17.034Z,23.28
2022-08-26T00:50:54.397Z,23.22
2022-08-26T00:53:26.299Z,23.19
2022-08-26T00:56:02.569Z,23.16
2022-08-26T00:58:35.092Z,23.11
2022-08-26T01:01:04.081Z,23.07
2022-08-26T01:03:35.026Z,23.04
2022-08-26T01:06:05.278Z,23.01
2022-08-26T01:08:42.060Z,22.99
2022-08-26T01:11:12.555Z,22.95
2022-08-26T01:13:43.336Z,22.90
2022-08-26T01:16:15.613Z,22.87
2022-08-26T01:18:46.943Z,22.84
2022-08-26T01:21:27.202Z,22.77
2022-08-26T01:23:58.913Z,22.74
2022-08-26T01:26:34.433Z,22.69
2022-08-26T01:29:07.929Z,22.67
2022-08-26T01:31:42.335Z,22.64
2022-08-26T01:34:18.832Z,22.61
2022-08-26T01:36:51.582Z,22.57
2022-08-26T01:39:21.901Z,22.53
2022-08-26T01:41:53.855Z,22.51
2022-08-26T01:44:26.833Z,22.48
2022-08-26T01:46:58.061Z,22.45
2022-08-26T01:49:27.882Z,22.43
2022-08-26T01:52:02.020Z,22.38
2022-08-26T01:54:34.264Z,22.34
2022-08-26T01:57:03.845Z,22.32
2022-08-26T01:59:32.758Z,22.31
2022-08-26T02:02:01.593Z,22.26
2022-08-26T02:04:34.839Z,22.23
2022-08-26T02:07:07.761Z,22.21
2022-08-26T02:09:41.357Z,22.19
2022-08-26T02:12:11.739Z,22.18
2022-08-26T02:14:46.666Z,22.15
2022-08-26T02:17:15.697Z,22.13
2022-08-26T02:19:51.388Z,22.10
2022-08-26T02:22:24.703Z,22.08
2022-08-26T02:24:58.565Z,22.05
2022-08-26T02:27:32.841Z,22.01
2022-08-26T02:30:11.093Z,21.96
2022-08-26T02:32:40.316Z,21.91
2022-08-26T02:35:11.174Z,21.86
2022-08-26T02:37:39.765Z,21.83
2022-08-26T02:40:15.887Z,21.80
2022-08-26T02:42:44.577Z,21.77
2022-08-26T02:45:13.468Z,21.77
2022-08-26T02:47:45.954Z,21.75
2022-08-26T02:50:15.737Z,21.73
2022-08-26T02:52:45.292Z,21.69
2022-08-26T02:55:15.716Z,21.67
2022-08-26T02:57:44.183Z,21.64
2022-08-26T03:00:16.345Z,21.62
2022-08-26T03:02:45.076Z,21.60
2022-08-26T03:05:14.244Z,21.60
2022-08-26T03:07:45.183Z,21.57
2022-08-26T03:10:16.366Z,21.54
2022-08-26T03:12:47.453Z,21.52
2022-08-26T03:15:19.400Z,21.49
2022-08-26T03:17:50.239Z,21.47
2022-08-26T03:20:19.516Z,21.42
2022-08-26T03:22:49.773Z,21.41
2022-08-26T03:25:22.449Z,21.38
2022-08-26T03:27:52.365Z,21.35
2022-08-26T03:30:38.725Z,21.32
2022-08-26T03:33:15.020Z,21.28
2022-08-26T03:35:45.697Z,21.26
2022-08-26T03:38:14.482Z,21.23
2022-08-26T03:40:44.830Z,21.19
2022-08-26T03:43:15.939Z,21.19
2022-08-26T03:45:44.772Z,21.16
2022-08-26T03:48:14.447Z,21.15
2022-08-26T03:50:43.845Z,21.14
2022-08-26T03:53:12.861Z,21.13
2022-08-26T03:55:43.641Z,21.10
2022-08-26T03:58:12.518Z,21.10
2022-08-26T04:00:40.899Z,21.08
2022-08-26T04:03:14.740Z,21.06
2022-08-26T04:05:46.789Z,21.06
2022-08-26T04:08:15.383Z,21.03
2022-08-26T04:10:45.172Z,21.02
2022-08-26T04:13:13.776Z,21.01
2022-08-26T04:15:42.220Z,20.97
2022-08-26T04:18:10.677Z,20.96
2022-08-26T04:20:39.352Z,20.95
2022-08-26T04:23:08.075Z,20.94
2022-08-26T04:25:36.549Z,20.91
2022-08-26T04:28:10.593Z,20.89
2022-08-26T04:30:39.565Z,20.88
2022-08-26T04:33:13.183Z,20.87
2022-08-26T04:35:44.014Z,20.86
2022-08-26T04:38:12.863Z,20.85
2022-08-26T04:40:46.755Z,20.86
2022-08-26T04:43:16.817Z,20.87
2022-08-26T04:45:45.260Z,20.87
2022-08-26T04:48:16.828Z,20.88
2022-08-26T04:50:45.407Z,20.88
2022-08-26T04:53:18.112Z,20.91
2022-08-26T04:55:46.667Z,20.93
2022-08-26T04:58:20.821Z,20.98
2022-08-26T05:00:51.531Z,21.02
2022-08-26T05:03:20.885Z,21.07
2022-08-26T05:05:50.893Z,21.10
2022-08-26T05:08:22.532Z,21.15
2022-08-26T05:10:55.899Z,21.17
2022-08-26T05:13:28.590Z,21.21
2022-08-26T05:16:00.557Z,21.23
2022-08-26T05:18:29.984Z,21.25
2022-08-26T05:20:58.420Z,21.27
2022-08-26T05:23:27.148Z,21.29
2022-08-26T05:25:59.245Z,21.29
2022-08-26T05:28:31.203Z,21.29
2022-08-26T05:31:00.553Z,21.28
2022-08-26T05:33:29.424Z,21.26
2022-08-26T05:35:57.924Z,21.21
2022-08-26T05:38:30.316Z,21.17
2022-08-26T05:40:59.000Z,21.14
2022-08-26T05:43:29.716Z,21.11
2022-08-26T05:46:07.751Z,21.05
2022-08-26T05:48:36.373Z,21.01
2022-08-26T05:51:08.781Z,21.00
2022-08-26T05:53:38.649Z,21.01
2022-08-26T05:56:09.327Z,21.04
2022-08-26T05:58:42.426Z,21.08
2022-08-26T06:01:17.429Z,21.13
2022-08-26T06:03:50.053Z,21.17
2022-08-26T06:06:27.212Z,21.22
2022-08-26T06:08:59.530Z,21.27
2022-08-26T06:11:30.562Z,21.33
2022-08-26T06:14:04.356Z,21.40
2022-08-26T06:16:36.301Z,21.47
2022-08-26T06:19:10.747Z,21.53
2022-08-26T06:21:41.543Z,21.60
2022-08-26T06:24:30.491Z,21.68
2022-08-26T06:27:02.160Z,21.75
2022-08-26T06:29:36.140Z,21.83
2022-08-26T06:32:06.778Z,21.89
2022-08-26T06:34:35.389Z,21.95
2022-08-26T06:37:06.466Z,22.01
2022-08-26T06:39:35.317Z,22.06
2022-08-26T06:42:08.876Z,22.10
2022-08-26T06:44:41.662Z,22.14
2022-08-26T06:47:13.285Z,22.17
2022-08-26T06:49:41.672Z,22.22
2022-08-26T06:52:10.084Z,22.28
2022-08-26T06:54:43.054Z,22.34
2022-08-26T06:57:13.118Z,22.42
2022-08-26T06:59:44.138Z,22.52
2022-08-26T07:02:13.433Z,22.67
2022-08-26T07:04:42.318Z,22.88
2022-08-26T07:07:14.759Z,23.19
2022-08-26T07:09:43.467Z,23.59
2022-08-26T07:12:11.842Z,23.91
2022-08-26T07:14:40.356Z,24.06
2022-08-26T07:17:14.335Z,24.09
2022-08-26T07:19:43.241Z,24.13
2022-08-26T07:22:11.601Z,24.27
2022-08-26T07:24:42.356Z,24.38
2022-08-26T07:27:15.110Z,24.35
2022-08-26T07:29:44.795Z,24.29
2022-08-26T07:32:22.945Z,24.22
2022-08-26T07:34:51.785Z,24.19
2022-08-26T07:37:20.413Z,24.19
2022-08-26T07:39:48.861Z,24.19
2022-08-26T07:42:19.669Z,24.21
2022-08-26T07:44:48.748Z,24.31
2022-08-26T07:47:24.760Z,24.63
2022-08-26T07:49:56.616Z,25.09
2022-08-26T07:52:27.549Z,25.53
2022-08-26T07:54:58.093Z,25.75
2022-08-26T07:57:27.155Z,26.11
2022-08-26T07:59:56.673Z,26.47
2022-08-26T08:02:28.088Z,26.63
2022-08-26T08:04:57.862Z,26.59
2022-08-26T08:07:44.286Z,26.55
2022-08-26T08:10:17.931Z,26.56
2022-08-26T08:12:48.064Z,26.64
2022-08-26T08:15:20.111Z,26.85
2022-08-26T08:17:51.560Z,27.20
2022-08-26T08:20:20.849Z,27.48
2022-08-26T08:22:49.965Z,27.94
2022-08-26T08:25:18.520Z,28.52
2022-08-26T08:27:48.614Z,29.06
2022-08-26T08:30:23.039Z,29.24
2022-08-26T08:32:53.524Z,29.17
2022-08-26T08:35:26.250Z,29.01
2022-08-26T08:37:56.577Z,28.90
2022-08-26T08:40:27.844Z,28.81
2022-08-26T08:43:04.826Z,28.84
2022-08-26T08:45:37.730Z,28.85
2022-08-26T08:48:15.231Z,28.95
2022-08-26T08:50:48.373Z,29.02
2022-08-26T08:53:22.656Z,28.99
2022-08-26T08:56:05.529Z,29.01
2022-08-26T08:58:51.470Z,29.32
2022-08-26T09:01:31.716Z,29.63
2022-08-26T09:04:24.941Z,29.62
2022-08-26T09:06:59.072Z,29.78
2022-08-26T09:09:32.350Z,30.02
2022-08-26T09:12:03.216Z,30.51
2022-08-26T09:14:32.949Z,31.21
2022-08-26T09:17:14.077Z,31.60
2022-08-26T09:19:50.476Z,31.71
2022-08-26T09:22:31.004Z,31.38
2022-08-26T09:24:59.684Z,31.18
2022-08-26T09:27:44.078Z,30.96
2022-08-26T09:30:16.566Z,30.73
2022-08-26T09:33:01.177Z,30.54
2022-08-26T09:35:34.585Z,30.38
2022-08-26T09:38:03.732Z,30.38
2022-08-26T09:40:35.244Z,30.85
2022-08-26T09:43:22.867Z,31.49
2022-08-26T09:45:59.284Z,32.14
2022-08-26T09:48:35.534Z,32.31
2022-08-26T09:51:24.073Z,32.17
2022-08-26T09:53:56.140Z,32.01
2022-08-26T09:56:29.946Z,31.80
2022-08-26T09:58:59.665Z,31.58
2022-08-26T10:01:34.889Z,31.37
2022-08-26T10:04:11.322Z,31.13
2022-08-26T10:06:56.928Z,30.90
2022-08-26T10:09:28.116Z,30.69
2022-08-26T10:12:03.457Z,30.54
2022-08-26T10:14:39.772Z,30.38
2022-08-26T10:17:15.850Z,30.35
2022-08-26T10:19:56.744Z,30.40
2022-08-26T10:22:34.154Z,30.48
2022-08-26T10:25:09.233Z,30.72
2022-08-26T10:27:49.744Z,30.87
2022-08-26T10:30:28.638Z,30.91
2022-08-26T10:33:03.462Z,30.90
2022-08-26T10:35:34.797Z,30.83
2022-08-26T10:38:13.131Z,30.79
2022-08-26T10:40:56.156Z,30.68
2022-08-26T10:43:31.081Z,30.61
2022-08-26T10:46:04.278Z,30.55
2022-08-26T10:48:43.491Z,30.95
2022-08-26T10:51:13.640Z,31.55
2022-08-26T10:53:55.938Z,32.06
2022-08-26T10:56:44.597Z,32.47
2022-08-26T10:59:26.513Z,32.49
2022-08-26T11:02:06.343Z,32.45
2022-08-26T11:04:51.704Z,32.53
2022-08-26T11:07:42.885Z,33.08
2022-08-26T11:11:01.093Z,34.20
2022-08-26T11:14:04.358Z,35.19
2022-08-26T11:16:43.574Z,35.92
2022-08-26T11:19:58.765Z,36.55
2022-08-26T11:22:31.061Z,36.86
2022-08-26T11:25:11.398Z,37.07
2022-08-26T11:28:07.585Z,37.28
2022-08-26T11:30:43.861Z,37.46
2022-08-26T11:33:32.724Z,37.49
2022-08-26T11:36:01.304Z,37.29
2022-08-26T11:38:45.167Z,36.83
2022-08-26T11:41:21.824Z,36.57
2022-08-26T11:43:52.258Z,36.63
2022-08-26T11:46:27.776Z,36.50
2022-08-26T11:49:05.214Z,36.26
2022-08-26T11:51:40.186Z,36.15
2022-08-26T11:54:16.274Z,36.28
2022-08-26T11:56:48.056Z,36.39
2022-08-26T11:59:25.184Z,36.45
2022-08-26T12:01:55.649Z,36.36
2022-08-26T12:04:31.236Z,36.15
2022-08-26T12:07:03.038Z,35.85
2022-08-26T12:09:37.827Z,35.69
2022-08-26T12:12:17.060Z,35.62
2022-08-26T12:14:46.068Z,35.66
2022-08-26T12:17:18.781Z,35.70
2022-08-26T12:19:47.817Z,35.67
2022-08-26T12:22:23.112Z,35.63
2022-08-26T12:24:58.472Z,35.81
2022-08-26T12:27:29.228Z,36.13
2022-08-26T12:30:10.107Z,36.71
2022-08-26T12:32:57.472Z,37.31
2022-08-26T12:35:28.788Z,37.89
2022-08-26T12:37:58.708Z,38.29
2022-08-26T12:40:41.915Z,38.73
2022-08-26T12:43:13.525Z,39.09
2022-08-26T12:45:45.436Z,39.30
2022-08-26T12:48:24.638Z,39.66
2022-08-26T12:50:54.159Z,39.97
2022-08-26T12:53:24.887Z,40.16
2022-08-26T12:55:57.229Z,40.31
2022-08-26T12:58:30.078Z,40.54
2022-08-26T13:01:20.235Z,40.69
2022-08-26T13:03:49.802Z,40.85
2022-08-26T13:06:31.234Z,40.93
2022-08-26T13:09:02.105Z,41.03
2022-08-26T13:11:35.562Z,41.11
2022-08-26T13:14:09.380Z,41.27
2022-08-26T13:16:41.640Z,41.13
2022-08-26T13:19:13.080Z,41.18
2022-08-26T13:21:47.980Z,41.36
2022-08-26T13:24:20.965Z,41.40
2022-08-26T13:26:51.526Z,41.40
2022-08-26T13:29:20.721Z,41.49
2022-08-26T13:31:49.781Z,41.44
2022-08-26T13:34:21.533Z,41.48
2022-08-26T13:36:51.741Z,41.27
2022-08-26T13:39:21.229Z,41.05
2022-08-26T13:41:51.480Z,41.08
2022-08-26T13:44:20.326Z,41.46
2022-08-26T13:46:49.040Z,41.45
2022-08-26T13:49:17.556Z,41.53
2022-08-26T13:51:46.042Z,41.79
2022-08-26T13:54:14.406Z,41.68
2022-08-26T13:56:42.790Z,41.63
2022-08-26T13:59:12.629Z,41.84
2022-08-26T14:01:41.029Z,42.25
2022-08-26T14:04:09.581Z,42.72
2022-08-26T14:06:38.236Z,43.04
2022-08-26T14:09:06.823Z,43.11
2022-08-26T14:11:50.853Z,43.08
2022-08-26T14:14:25.109Z,42.91
2022-08-26T14:17:00.128Z,42.53
2022-08-26T14:19:31.063Z,42.01
2022-08-26T14:22:01.400Z,41.67
2022-08-26T14:24:30.156Z,41.43
2022-08-26T14:26:58.593Z,40.99
2022-08-26T14:29:28.670Z,40.68
2022-08-26T14:31:58.919Z,40.71
2022-08-26T14:34:27.721Z,40.86
2022-08-26T14:36:56.084Z,40.88
2022-08-26T14:39:24.524Z,40.61
2022-08-26T14:41:56.746Z,40.19
2022-08-26T14:44:31.346Z,39.76
2022-08-26T14:47:03.416Z,39.30
2022-08-26T14:49:32.358Z,38.88
2022-08-26T14:52:00.780Z,38.61
2022-08-26T14:54:29.361Z,38.43
2022-08-26T14:57:02.042Z,38.20
2022-08-26T14:59:36.145Z,38.04
2022-08-26T15:02:06.178Z,37.87
2022-08-26T15:04:34.985Z,37.62
2022-08-26T15:07:04.865Z,37.46
2022-08-26T15:09:36.828Z,37.31
2022-08-26T15:12:06.560Z,37.30
2022-08-26T15:14:36.349Z,37.19
2022-08-26T15:17:05.317Z,36.75
2022-08-26T15:19:33.966Z,36.17
2022-08-26T15:22:02.363Z,35.59
2022-08-26T15:24:30.732Z,35.03
2022-08-26T15:26:59.252Z,34.72
2022-08-26T15:29:27.836Z,34.54
2022-08-26T15:31:57.733Z,34.24
2022-08-26T15:34:26.854Z,33.89
2022-08-26T15:36:55.940Z,33.55
2022-08-26T15:39:24.757Z,33.27
2022-08-26T15:41:53.533Z,32.98
2022-08-26T15:44:21.985Z,32.72
2022-08-26T15:46:55.348Z,32.50
2022-08-26T15:49:28.510Z,32.32
2022-08-26T15:51:57.132Z,32.08
2022-08-26T15:54:25.917Z,31.81
2022-08-26T15:56:54.516Z,31.51
2022-08-26T15:59:23.448Z,31.27
2022-08-26T16:01:53.118Z,31.06
2022-08-26T16:04:21.957Z,30.90
2022-08-26T16:06:52.182Z,30.77
2022-08-26T16:09:24.322Z,30.65
2022-08-26T16:11:53.295Z,30.47
2022-08-26T16:14:22.480Z,30.33
2022-08-26T16:16:51.566Z,30.15
2022-08-26T16:19:20.067Z,30.05
2022-08-26T16:21:50.693Z,29.97
2022-08-26T16:24:24.860Z,29.87
2022-08-26T16:26:55.354Z,29.77
2022-08-26T16:29:24.492Z,29.72
2022-08-26T16:31:54.611Z,29.65
2022-08-26T16:34:23.317Z,29.63
2022-08-26T16:36:53.063Z,29.62
2022-08-26T16:39:22.787Z,29.60
2022-08-26T16:41:51.417Z,29.57
2022-08-26T16:44:19.832Z,29.55
2022-08-26T16:46:48.297Z,29.51
2022-08-26T16:49:16.991Z,29.54
2022-08-26T16:51:45.505Z,29.55
2022-08-26T16:54:14.553Z,29.44
2022-08-26T16:56:44.297Z,29.35
2022-08-26T16:59:12.925Z,29.41
2022-08-26T17:01:41.635Z,29.57
2022-08-26T17:04:10.125Z,29.74
2022-08-26T17:06:38.550Z,29.78
2022-08-26T17:09:07.240Z,29.73
2022-08-26T17:11:36.019Z,29.53
2022-08-26T17:14:06.590Z,29.26
2022-08-26T17:16:35.344Z,29.02
2022-08-26T17:19:05.537Z,28.83
2022-08-26T17:21:35.719Z,28.65
2022-08-26T17:24:05.899Z,28.46
2022-08-26T17:26:34.498Z,28.23
2022-08-26T17:29:03.174Z,28.06
2022-08-26T17:31:33.089Z,27.89
2022-08-26T17:34:01.504Z,27.72
2022-08-26T17:36:30.061Z,27.60
2022-08-26T17:38:59.533Z,27.49
2022-08-26T17:41:28.785Z,27.37
2022-08-26T17:43:57.486Z,27.28
2022-08-26T17:46:26.602Z,27.21
2022-08-26T17:48:56.849Z,27.13
2022-08-26T17:51:25.396Z,27.02
2022-08-26T17:53:54.002Z,26.93
2022-08-26T17:56:25.477Z,26.84
2022-08-26T17:58:54.845Z,26.78
2022-08-26T18:01:27.559Z,26.72
2022-08-26T18:04:00.441Z,26.67
2022-08-26T18:06:30.291Z,26.62
2022-08-26T18:08:59.429Z,26.59
2022-08-26T18:11:28.585Z,26.54
2022-08-26T18:13:56.948Z,26.48
2022-08-26T18:16:25.982Z,26.42
2022-08-26T18:18:55.921Z,26.37
2022-08-26T18:21:28.831Z,26.34
2022-08-26T18:23:57.806Z,26.31
2022-08-26T18:26:29.645Z,26.26
2022-08-26T18:28:58.443Z,26.22
2022-08-26T18:31:27.762Z,26.18
2022-08-26T18:34:00.197Z,26.16
2022-08-26T18:36:31.477Z,26.12
2022-08-26T18:39:00.570Z,26.09
2022-08-26T18:41:33.387Z,26.05
2022-08-26T18:44:01.960Z,26.01
2022-08-26T18:46:30.462Z,25.98
2022-08-26T18:49:00.337Z,25.92
2022-08-26T18:51:31.897Z,25.89
2022-08-26T18:54:02.487Z,25.84
2022-08-26T18:56:31.374Z,25.81
2022-08-26T18:59:00.097Z,25.76
2022-08-26T19:01:34.043Z,25.72
2022-08-26T19:04:06.501Z,25.67
2022-08-26T19:06:36.917Z,25.62
2022-08-26T19:09:08.908Z,25.59
2022-08-26T19:11:38.358Z,25.53
2022-08-26T19:14:14.207Z,25.47
2022-08-26T19:16:44.808Z,25.43
2022-08-26T19:19:15.376Z,25.38
2022-08-26T19:21:44.117Z,25.33
2022-08-26T19:24:17.359Z,25.28
2022-08-26T19:26:48.932Z,25.22
2022-08-26T19:29:20.517Z,25.17
2022-08-26T19:31:49.048Z,25.13
2022-08-26T19:34:20.686Z,25.09
2022-08-26T19:36:50.500Z,25.04
2022-08-26T19:39:18.845Z,25.01
2022-08-26T19:41:47.805Z,24.98
2022-08-26T19:44:51.235Z,24.96
2022-08-26T19:47:19.668Z,24.91
2022-08-26T19:49:53.376Z,24.90
2022-08-26T19:52:22.583Z,24.84
2022-08-26T19:54:58.501Z,24.85
2022-08-26T19:57:27.226Z,24.84
2022-08-26T19:59:55.678Z,24.82
2022-08-26T20:02:24.541Z,24.79
2022-08-26T20:04:54.424Z,24.76
2022-08-26T20:07:23.084Z,24.74
2022-08-26T20:09:51.558Z,24.71
2022-08-26T20:12:20.315Z,24.70
2022-08-26T20:14:48.725Z,24.66
2022-08-26T20:17:17.389Z,24.63
2022-08-26T20:20:03.469Z,24.61
2022-08-26T20:22:34.122Z,24.57
2022-08-26T20:25:02.828Z,24.55
2022-08-26T20:27:38.035Z,24.55
2022-08-26T20:30:10.262Z,24.54
2022-08-26T20:32:39.734Z,24.54
2022-08-26T20:35:12.028Z,24.52
2022-08-26T20:37:42.908Z,24.51
2022-08-26T20:40:13.891Z,24.48
2022-08-26T20:42:42.493Z,24.48
2022-08-26T20:45:11.905Z,24.47
2022-08-26T20:47:40.888Z,24.45
2022-08-26T20:50:10.120Z,24.45
2022-08-26T20:52:38.559Z,24.43
2022-08-26T20:55:09.921Z,24.42
2022-08-26T20:57:38.580Z,24.39
2022-08-26T21:00:08.465Z,24.37
2022-08-26T21:02:37.439Z,24.35
2022-08-26T21:05:06.991Z,24.30
2022-08-26T21:07:35.958Z,24.25
2022-08-26T21:10:04.954Z,24.23
2022-08-26T21:12:35.479Z,24.20
2022-08-26T21:15:04.620Z,24.15
2022-08-26T21:17:33.245Z,24.11
2022-08-26T21:20:02.125Z,24.07
2022-08-26T21:22:30.821Z,24.02
2022-08-26T21:24:59.180Z,23.99
2022-08-26T21:27:27.888Z,23.94
2022-08-26T21:29:58.116Z,23.89
2022-08-26T21:32:26.859Z,23.86
2022-08-26T21:34:57.204Z,23.81
2022-08-26T21:37:26.793Z,23.78
2022-08-26T21:39:58.903Z,23.76
2022-08-26T21:42:32.956Z,23.74
2022-08-26T21:45:04.188Z,23.74
2022-08-26T21:47:32.887Z,23.73
2022-08-26T21:50:01.553Z,23.72
2022-08-26T21:52:30.232Z,23.73
2022-08-26T21:54:59.820Z,23.74
2022-08-26T21:57:29.987Z,23.74
2022-08-26T21:59:58.976Z,23.73
2022-08-26T22:02:29.145Z,23.73
2022-08-26T22:04:57.532Z,23.72
2022-08-26T22:07:26.090Z,23.71
2022-08-26T22:09:54.741Z,23.68
2022-08-26T22:12:23.153Z,23.68
2022-08-26T22:14:51.604Z,23.65
2022-08-26T22:17:19.960Z,23.65
2022-08-26T22:19:50.087Z,23.63
2022-08-26T22:22:18.581Z,23.61
2022-08-26T22:24:46.969Z,23.61
2022-08-26T22:27:15.824Z,23.59
2022-08-26T22:29:46.490Z,23.59
2022-08-26T22:32:15.376Z,23.56
2022-08-26T22:34:44.046Z,23.53
2022-08-26T22:37:13.873Z,23.52
2022-08-26T22:39:42.572Z,23.48
2022-08-26T22:42:10.980Z,23.44
2022-08-26T22:44:41.171Z,23.41
2022-08-26T22:47:24.989Z,23.38
2022-08-26T22:49:53.437Z,23.35
2022-08-26T22:52:23.168Z,23.32
2022-08-26T22:54:52.005Z,23.26
2022-08-26T22:57:20.797Z,23.23
2022-08-26T22:59:49.557Z,23.18
2022-08-26T23:02:18.188Z,23.15
2022-08-26T23:04:46.652Z,23.11
2022-08-26T23:07:15.041Z,23.06
2022-08-26T23:09:45.098Z,23.02
2022-08-26T23:12:13.718Z,23.01
2022-08-26T23:14:43.886Z,22.99
2022-08-26T23:17:14.322Z,22.99
2022-08-26T23:19:42.986Z,22.98
2022-08-26T23:22:11.573Z,22.96
2022-08-26T23:24:40.869Z,22.92
2022-08-26T23:27:11.232Z,22.91
2022-08-26T23:29:39.820Z,22.89
2022-08-26T23:32:08.359Z,22.87
2022-08-26T23:34:54.289Z,22.86
2022-08-26T23:37:23.261Z,22.81
2022-08-26T23:39:54.417Z,22.79
2022-08-26T23:42:24.336Z,22.76
2022-08-26T23:44:56.616Z,22.74
2022-08-26T23:47:25.173Z,22.72
2022-08-26T23:49:53.928Z,22.71
2022-08-26T23:52:39.866Z,22.70
2022-08-26T23:55:10.640Z,22.68
2022-08-26T23:57:40.516Z,22.66
